This is the latest recevied weather packets stored in our database for station/object DL3MEB-6. If no packets are shown the sender has not sent any weather packets the latest 10 day(s).
| Time | Temp. | Humidity | Pressure | Rain* | Wind** | Luminosity | Snow |
|---|---|---|---|---|---|---|---|
| 1787775754 | 21.11° C | 73% | 1015 hPa | 0 mm | - | - | - |
| 1787774845 | 21.11° C | 73% | 1015.1 hPa | 0 mm | - | - | - |
| 1787773940 | 21.67° C | 72% | 1014.9 hPa | 0 mm | - | - | - |
| 1787773039 | 22.22° C | 70% | 1014.9 hPa | 0 mm | - | - | - |
| 1787772130 | 22.78° C | 68% | 1014.8 hPa | 0 mm | - | - | - |
| 1787771224 | 22.78° C | 67% | 1014.9 hPa | 0 mm | - | - | - |
| 1787770311 | 23.33° C | 65% | 1014.8 hPa | 0 mm | - | - | - |
| 1787769409 | 24.44° C | 63% | 1014.7 hPa | 0 mm | - | - | - |
| 1787767594 | 25.56° C | 59% | 1014.6 hPa | 0 mm | - | - | - |
| 1787766687 | 26.67° C | 56% | 1014.4 hPa | 0 mm | - | - | - |
| 1787765781 | 27.78° C | 52% | 1014.4 hPa | 0 mm | - | - | - |
| 1787764873 | 28.33° C | 49% | 1014.3 hPa | 0 mm | - | - | - |
| 1787763972 | 28.33° C | 48% | 1014.1 hPa | 0 mm | - | - | - |
| 1787763059 | 28.33° C | 47% | 1014.1 hPa | 0 mm | - | - | - |
| 1787762151 | 28.89° C | 48% | 1014 hPa | 0 mm | - | - | - |
| 1787761246 | 28.89° C | 46% | 1013.9 hPa | 0 mm | - | - | - |
| 1787760337 | 28.89° C | 47% | 1014.1 hPa | 0 mm | - | - | - |
| 1787759425 | 28.89° C | 50% | 1014.1 hPa | 0 mm | - | - | - |
| 1787758525 | 29.44° C | 45% | 1014.3 hPa | 0 mm | - | - | - |
| 1787757617 | 30° C | 46% | 1014.5 hPa | 0 mm | - | - | - |
| 1787756713 | 30.56° C | 43% | 1014.5 hPa | 0 mm | - | - | - |
| 1787755809 | 31.11° C | 42% | 1014.3 hPa | 0 mm | - | - | - |
| 1787754903 | 31.11° C | 41% | 1014.6 hPa | 0 mm | - | - | - |
| 1787753998 | 30.56° C | 38% | 1014.9 hPa | 0 mm | - | - | - |
| 1787753093 | 30.56° C | 41% | 1015 hPa | 0 mm | - | - | - |
* Rain latest hour (hover to see other rain measurements)
** Current wind speed in m/s (hover to see current wind gust speed)